• Join FlightAware (Why Join?)
  • Login
  • US Flag 
03:05AM EDT


 

Airport Tracker/Info


-or-


 

Live Flight TrackerFlight Track Log ✈ SWA2122 ✈ 03-Aug-2013 ✈ KBWI - KFLL

Flight Track Log - Related Links

Times and Time Zones

All times are in EDT time to prevent confusion due to time zone crossing. See the SWA2122 flight status page for this flight to view local times or setup timezone preferences in your user account.

Time Position Orientation Groundspeed Altitude Reporting Facility
EDT Latitude Longitude Course Direction KTS MPH feet Rate Location/Type
05:17PM 39.1667 -76.7500 171° South 213 245 2,500  Level Potomac TRACON
05:18PM 39.1000 -76.7167 159° South 272 313 5,400 2,520 Climbing Potomac TRACON
05:19PM 39.0500 -76.6500 134° Southeast 307 353 7,600 2,460 Climbing Potomac TRACON
05:21PM 38.9189 -76.6722 188° South 297 342 11,900 2,520 Climbing Washington Center
05:22PM 38.8356 -76.6842 186° South 292 336 14,500 2,220 Climbing Washington Center
05:23PM 38.5119 -76.7124 171° South  Level FlightAware Approximate
05:23PM 38.7456 -76.6989 187° South 308 354 16,300  Level Washington Center
05:24PM 38.6475 -76.7133 187° South 337 388 18,300 1,740 Climbing Washington Center
05:25PM 38.5453 -76.7253 185° South 361 415 19,900 1,440 Climbing Washington Center
05:26PM 38.4350 -76.7128 175° South 375 432 21,300 1,500 Climbing Washington Center
05:27PM 38.3225 -76.6981 174° South 395 455 23,000 1,620 Climbing Washington Center
05:28PM 38.1975 -76.6750 172° South 412 474 24,500 1,440 Climbing Washington Center
05:29PM 38.0808 -76.6600 174° South 418 481 25,900 1,080 Climbing Washington Center
05:30PM 37.9622 -76.6478 175° South 423 487 26,800 960 Climbing Washington Center
05:31PM 37.8431 -76.6594 184° South 423 487 27,900 1,260 Climbing Washington Center
05:32PM 37.7219 -76.6761 186° South 428 493 29,300 1,260 Climbing Washington Center
05:33PM 37.6031 -76.6928 186° South 428 493 30,400 960 Climbing Washington Center
05:34PM 37.4858 -76.7197 190° South 434 499 31,300 780 Climbing Washington Center
05:35PM 37.3831 -76.7942 210° Southwest 418 481 32,000 300 Climbing Washington Center
05:36PM 37.2819 -76.8786 214° Southwest 439 505 32,000  Level Washington Center
05:37PM 37.1789 -76.9525 210° Southwest 439 505 32,000  Level Washington Center
05:38PM 37.0800 -77.0317 213° Southwest 434 499 32,000  Level Washington Center
05:39PM 36.9789 -77.1103 212° Southwest 429 494 32,000  Level Washington Center
05:40PM 36.8736 -77.1911 212° Southwest 435 501 32,000  Level Washington Center
05:41PM 36.7703 -77.2694 211° Southwest 440 506 32,000  Level Washington Center
05:42PM 36.6647 -77.3475 211° Southwest 440 506 32,000  Level Washington Center
05:43PM 36.5592 -77.4278 211° Southwest 440 506 32,000  Level Washington Center
05:44PM 36.4536 -77.5081 211° Southwest 446 513 32,000 300 Level Washington Center
05:45PM 36.3608 -77.5781 211° Southwest 446 513 32,600 600 Climbing Washington Center
05:46PM 36.2531 -77.6578 211° Southwest 446 513 33,300 660 Climbing Washington Center
05:47PM 36.1431 -77.7397 211° Southwest 458 527 34,000 300 Climbing Washington Center
05:48PM 36.0331 -77.8214 211° Southwest 458 527 34,000  Level Washington Center
05:49PM 35.9231 -77.9006 210° Southwest 463 533 34,000  Level Washington Center
05:50PM 35.8131 -77.9817 211° Southwest 463 533 34,000  Level Washington Center
05:51PM 35.7028 -78.0603 210° Southwest 463 533 34,000  Level Washington Center
05:52PM 35.5928 -78.1411 211° Southwest 463 533 34,000  Level Washington Center
05:53PM 35.4803 -78.2217 210° Southwest 463 533 34,000  Level Washington Center
05:54PM 35.3681 -78.3022 210° Southwest 469 540 34,000  Level Washington Center
05:55PM 35.2556 -78.3847 211° Southwest 469 540 34,000  Level Washington Center
05:56PM 35.1472 -78.4650 211° Southwest 474 545 34,000  Level Washington Center
05:57PM 35.0347 -78.5472 211° Southwest 474 545 34,000  Level Washington Center
05:58PM 34.9242 -78.6267 211° Southwest 474 545 34,000  Level Washington Center
06:00PM 34.7122 -78.7758 210° Southwest 494 568 34,000  Level Jacksonville Center
06:01PM 34.6019 -78.8544 210° Southwest 489 563 34,000  Level Jacksonville Center
06:02PM 34.4900 -78.9378 212° Southwest 482 555 34,000  Level Jacksonville Center
06:03PM 34.3736 -79.0158 209° Southwest 477 549 34,000  Level Jacksonville Center
06:04PM 34.2522 -79.0717 201° Southwest 472 543 34,000  Level Jacksonville Center
06:05PM 34.1264 -79.1247 199° South 472 543 34,000  Level Jacksonville Center
06:06PM 34.0028 -79.1778 200° South 472 543 34,000  Level Jacksonville Center
06:07PM 33.8792 -79.2306 200° South 472 543 34,000 -60 Level Jacksonville Center
06:08PM 33.7556 -79.2831 199° South 472 543 33,900  Descending Jacksonville Center
06:09PM 33.6525 -79.3272 200° South 467 537 34,000  Climbing Jacksonville Center
06:10PM 33.5289 -79.3794 199° South 467 537 34,000  Level Jacksonville Center
06:11PM 33.4050 -79.4317 199° South 467 537 34,000  Level Jacksonville Center
06:12PM 33.2833 -79.4836 200° South 467 537 34,000  Level Jacksonville Center
06:13PM 33.1636 -79.5353 200° South 467 537 34,000  Level Jacksonville Center
06:14PM 33.0417 -79.5844 199° South 462 532 34,000  Level Jacksonville Center
06:15PM 32.9200 -79.6386 200° South 462 532 34,000  Level Jacksonville Center
06:16PM 32.7983 -79.6897 199° South 462 532 34,000 -60 Level Jacksonville Center
06:17PM 32.6783 -79.7408 200° South 462 532 33,900  Descending Jacksonville Center
06:18PM 32.5586 -79.7919 200° South 462 532 34,000  Climbing Jacksonville Center
06:19PM 32.4367 -79.8428 199° South 462 532 34,000  Level Jacksonville Center
06:20PM 32.3147 -79.8961 200° South 462 532 34,000  Level Jacksonville Center
06:21PM 32.1928 -79.9467 199° South 462 532 34,000  Level Jacksonville Center
06:22PM 32.0861 -80.0261 212° Southwest 462 532 34,000  Level Jacksonville Center
06:23PM 31.9903 -80.1319 223° Southwest 457 526 34,000  Level Jacksonville Center
06:24PM 31.8967 -80.2375 224° Southwest 467 537 34,000 -300 Level Jacksonville Center
06:25PM 31.8028 -80.3431 224° Southwest 467 537 33,400 -1,020 Descending Jacksonville Center
06:26PM 31.7086 -80.4456 223° Southwest 467 537 32,000 -720 Descending Jacksonville Center
06:27PM 31.6186 -80.5456 223° Southwest 457 526 32,000  Level Jacksonville Center
06:28PM 31.5103 -80.6628 223° Southwest 477 549 32,000 -60 Level Jacksonville Center
06:29PM 31.4139 -80.7697 223° Southwest 483 556 31,900  Descending Jacksonville Center
06:30PM 31.3194 -80.8767 224° Southwest 476 548 32,000  Climbing Jacksonville Center
06:31PM 31.2164 -80.9639 216° Southwest 471 542 32,000  Level Jacksonville Center
06:32PM 31.0892 -80.9639 180° South 449 517 32,000  Level Jacksonville Center
06:33PM 30.9633 -80.9253 165° South 442 509 32,000 -60 Level Jacksonville Center
06:34PM 30.8333 -80.8989 170° South 457 526 31,900  Descending Jacksonville Center
06:35PM 30.7119 -80.8703 169° South 457 526 32,000  Climbing Jacksonville Center
06:36PM 30.5881 -80.8342 166° South 457 526 32,000  Level Jacksonville Center
06:37PM 30.4642 -80.7936 164° South 457 526 32,000  Level Jacksonville Center
06:38PM 30.3425 -80.7528 164° South 457 526 32,000  Level Jacksonville Center
06:39PM 30.2250 -80.7147 164° South 457 526 32,000  Level Jacksonville Center
06:40PM 30.1053 -80.6742 164° South 457 526 32,000  Level Jacksonville Center
06:41PM 29.9833 -80.6336 164° South 457 526 32,000  Level Jacksonville Center
06:42PM 29.8597 -80.5958 165° South 457 526 32,000 -60 Level Jacksonville Center
06:44PM 29.6411 -80.5225 164° South 462 532 31,900  Descending Miami Center
06:45PM 29.5325 -80.4497 150° Southeast 457 526 32,000  Climbing Miami Center
06:46PM 29.4258 -80.3794 150° Southeast 446 513 32,000  Level Miami Center
06:47PM 29.3192 -80.3047 149° Southeast 441 507 32,000  Level Miami Center
06:48PM 29.2144 -80.2325 149° Southeast 446 513 32,000  Level Miami Center
06:49PM 29.1078 -80.1603 149° Southeast 446 513 32,000  Level Miami Center
06:50PM 29.0031 -80.0861 148° Southeast 446 513 32,000  Level Miami Center
06:51PM 28.8922 -80.0094 149° Southeast 446 513 32,000  Level Miami Center
06:52PM 28.7808 -79.9494 155° Southeast 446 513 32,000  Level Miami Center
06:53PM 28.6611 -79.8822 154° Southeast 458 527 32,000  Level Miami Center
06:54PM 28.5478 -79.8200 154° Southeast 463 533 32,000  Level Miami Center
06:55PM 28.4194 -79.7647 159° South 457 526 32,000  Level Miami Center
06:56PM 28.2942 -79.7614 179° South 445 512 32,000  Level Miami Center
06:57PM 28.1689 -79.7631 181° South 445 512 32,000  Level Miami Center
06:58PM 28.0417 -79.7619 180° South 450 518 32,000  Level Miami Center
06:59PM 27.9167 -79.7542 177° South 450 518 32,000  Level Miami Center
07:00PM 27.8042 -79.7442 176° South 457 526 32,000 -300 Level Miami Center
07:01PM 27.6789 -79.7386 178° South 457 526 31,400 -1,140 Descending Miami Center
07:02PM 27.5433 -79.7306 177° South 446 513 29,800 -2,040 Descending Miami Center
07:03PM 27.4244 -79.7208 176° South 440 506 27,400 -2,400 Descending Miami Center
07:04PM 27.3036 -79.7178 179° South 435 501 25,100 -2,340 Descending Miami Center
07:05PM 27.1950 -79.7103 176° South 440 506 22,800 -2,280 Descending Miami Center
07:06PM 27.0783 -79.7028 177° South 435 501 20,600 -2,400 Descending Miami Center
07:07PM 26.9572 -79.6953 177° South 409 471 18,100 -2,100 Descending Miami Center
07:08PM 26.8486 -79.6903 178° South 395 455 16,400 -1,620 Descending Miami Center
07:09PM 26.7589 -79.6881 179° South 355 409 15,100 -1,980 Descending Miami Center
07:10PM 26.6600 -79.7253 199° South 346 398 12,500 -2,100 Descending Miami Center
07:11PM 26.5442 -79.7828 204° Southwest 338 389 10,100 -1,740 Descending Miami Center
07:12PM 26.4661 -79.8203 203° Southwest 286 329 8,600 -1,320 Descending Miami Center
07:13PM 26.4197 -79.8422 203° Southwest 295 339 7,900 -780 Descending Miami Center
07:14PM 26.3522 -79.8661 198° South 274 315 7,300 -1,380 Descending Miami Center
07:15PM 26.2872 -79.8831 193° South 249 287 5,200 -1,680 Descending Miami Center
07:16PM 26.2222 -79.8975 191° South 249 287 4,000 -1,020 Descending Miami Center
07:17PM 26.1550 -79.9144 193° South 254 292 3,200 -960 Descending Miami Center
07:17PM 26.1128 -79.9272 195° South 237 273 2,600 -1,020 Descending Miami Center
07:18PM 26.0961 -79.9336 199° South 247 284 2,200 -300 Descending Miami Center
07:19PM 26.0714 -80.0139 251° West 181 208 2,100 -420 Descending Miami Center
07:20PM 26.0744 -80.0672 274° West 158 182 1,300 -780 Descending Miami Center
07:21PM 26.0756 -80.1136 272° West 146 168 600 -720 Descending Miami Center
07:23PM 26.0726 -80.1527 268° West  Level Estimated
07:30PM 26.0726 -80.1527 90° East  Level Estimated